Time;durP1;ratioP1;P1;durP2;ratioP2;P2;SDS_P1;SDS_P2;PMS_P1;PMS_P2;Temp;Humidity;BMP_temperature;BMP_pressure;BME280_temperature;BME280_humidity;BME280_pressure;Samples;Min_cycle;Max_cycle;Signal;HPM_P1;HPM_P2
2023/08/03 00:01:33;;;;;;;6.47;1.15;;;;;;;18.07;100.00;98512.69;5084721;28;20029;-81
2023/08/03 00:04:07;;;;;;;6.60;1.35;;;;;;;18.22;100.00;98545.84;5076639;28;20047;-81
2023/08/03 00:06:36;;;;;;;8.10;1.60;;;;;;;18.04;100.00;98514.84;5070490;28;20047;-82
2023/08/03 00:09:07;;;;;;;;;;;;;;;18.32;100.00;98560.94;5077867;28;20056;-82
2023/08/03 00:11:35;;;;;;;9.40;1.15;;;;;;;18.33;100.00;98582.19;5086920;28;19947;-81
2023/08/03 00:14:04;;;;;;;7.88;1.40;;;;;;;18.33;100.00;98565.28;5084190;28;20063;-81
2023/08/03 00:16:32;;;;;;;5.68;1.10;;;;;;;18.44;100.00;98565.78;5074705;28;20041;-80
2023/08/03 00:19:01;;;;;;;5.97;1.25;;;;;;;18.19;100.00;98542.66;5072408;28;20037;-81
2023/08/03 00:21:32;;;;;;;6.43;1.23;;;;;;;18.16;100.00;98549.19;5075109;28;20105;-81
2023/08/03 00:24:01;;;;;;;8.60;1.27;;;;;;;18.31;100.00;98564.59;5063298;28;20064;-81
2023/08/03 00:26:29;;;;;;;7.82;1.20;;;;;;;18.31;100.00;98576.16;5053990;28;20053;-80
2023/08/03 00:28:58;;;;;;;6.85;1.25;;;;;;;18.29;100.00;98578.16;5060372;28;20052;-80
2023/08/03 00:31:31;;;;;;;7.13;1.17;;;;;;;17.97;100.00;98538.75;5048591;28;20143;-81
2023/08/03 00:34:00;;;;;;;6.32;1.50;;;;;;;18.06;100.00;98553.84;5055776;28;20068;-81
2023/08/03 00:36:30;;;;;;;6.10;0.95;;;;;;;18.14;100.00;98580.66;5087784;28;20045;-81
2023/08/03 00:38:58;;;;;;;4.57;1.03;;;;;;;18.06;100.00;98571.78;5091257;28;20048;-80
2023/08/03 00:41:28;;;;;;;7.55;1.27;;;;;;;18.16;100.00;98589.38;5084518;28;20044;-80
2023/08/03 00:43:57;;;;;;;6.22;1.30;;;;;;;17.95;100.00;98566.69;5088625;28;20134;-80
2023/08/03 00:46:25;;;;;;;6.88;1.08;;;;;;;18.12;100.00;98587.16;5091616;28;20063;-79
2023/08/03 00:48:56;;;;;;;6.43;1.10;;;;;;;18.15;100.00;98600.25;5063685;28;20053;-80
2023/08/03 00:51:24;;;;;;;7.38;0.93;;;;;;;18.10;100.00;98586.53;5088494;28;20040;-79
2023/08/03 00:53:52;;;;;;;8.52;1.10;;;;;;;18.04;100.00;98561.22;5078572;28;20098;-80
2023/08/03 00:56:21;;;;;;;6.40;1.10;;;;;;;18.17;100.00;98592.88;5086355;28;20049;-78
2023/08/03 00:58:50;;;;;;;3.88;1.05;;;;;;;18.19;100.00;98612.31;5101979;28;20119;-80
2023/08/03 01:01:21;;;;;;;7.32;1.45;;;;;;;18.05;100.00;98578.97;5064305;28;20040;-80
2023/08/03 01:03:52;;;;;;;6.20;1.07;;;;;;;18.10;100.00;98605.28;5079376;28;20078;-80
2023/08/03 01:06:22;;;;;;;7.50;0.95;;;;;;;18.07;100.00;98590.34;5076964;28;20482;-80
2023/08/03 01:08:54;;;;;;;8.07;1.10;;;;;;;18.04;100.00;98577.28;5086643;28;20040;-81
2023/08/03 01:11:24;;;;;;;7.18;1.08;;;;;;;18.12;100.00;98577.28;5071576;28;20506;-79
2023/08/03 01:13:54;;;;;;;5.13;0.90;;;;;;;18.25;100.00;98598.28;5062916;28;20071;-81
2023/08/03 01:16:25;;;;;;;6.78;1.00;;;;;;;18.39;100.00;98599.47;5083892;28;20040;-79
2023/08/03 01:18:53;;;;;;;4.93;0.52;;;;;;;18.38;100.00;98603.16;5086840;28;20040;-80
2023/08/03 01:21:27;;;;;;;5.65;0.93;;;;;;;18.29;100.00;98610.31;5069402;28;20048;-79
2023/08/03 01:23:57;;;;;;;3.65;0.63;;;;;;;18.29;100.00;98596.91;5058284;28;20048;-79
2023/08/03 01:26:26;;;;;;;7.60;1.25;;;;;;;18.10;100.00;98581.16;5046964;28;20044;-79
2023/08/03 01:28:54;;;;;;;8.02;0.98;;;;;;;18.22;100.00;98593.25;5068436;28;20055;-80
2023/08/03 01:31:24;;;;;;;5.85;0.85;;;;;;;18.13;100.00;98589.69;5065716;28;20045;-78
2023/08/03 01:33:53;;;;;;;3.67;0.80;;;;;;;18.19;100.00;98620.34;5071737;28;20376;-78
2023/08/03 01:36:21;;;;;;;5.45;0.70;;;;;;;18.20;100.00;98600.59;5078409;28;20074;-79
2023/08/03 01:38:55;;;;;;;5.82;0.90;;;;;;;18.27;100.00;98596.25;5069607;28;20032;-79
2023/08/03 01:41:25;;;;;;;3.78;0.80;;;;;;;18.39;100.00;98620.91;5070780;28;20040;-79
2023/08/03 01:44:20;;;;;;;4.22;0.80;;;;;;;18.48;100.00;98626.09;5084762;28;20102;-78
2023/08/03 01:46:49;;;;;;;5.32;0.70;;;;;;;18.69;100.00;98632.88;5092329;28;20048;-76
2023/08/03 01:49:19;;;;;;;3.50;0.60;;;;;;;18.84;100.00;98641.94;5071159;28;20058;-79
2023/08/03 01:51:48;;;;;;;2.33;0.40;;;;;;;18.74;100.00;98609.06;5060162;28;20143;-79
2023/08/03 01:54:18;;;;;;;2.55;0.50;;;;;;;18.87;100.00;98617.47;5064530;28;20052;-79
2023/08/03 01:56:48;;;;;;;4.88;0.65;;;;;;;18.94;100.00;98623.81;5079615;28;20058;-80
2023/08/03 01:59:19;;;;;;;3.35;0.73;;;;;;;18.74;100.00;98566.16;5103578;28;20032;-78
2023/08/03 02:01:47;;;;;;;3.42;0.55;;;;;;;18.94;100.00;98613.09;5059757;28;20050;-77
2023/08/03 02:04:16;;;;;;;3.25;0.70;;;;;;;19.04;100.00;98635.25;5080825;28;20071;-78
2023/08/03 02:06:51;;;;;;;2.20;0.50;;;;;;;18.96;100.00;98623.66;5061853;28;20078;-78
2023/08/03 02:09:21;;;;;;;5.50;0.80;;;;;;;18.85;100.00;98614.13;5064425;28;20047;-77
2023/08/03 02:11:51;;;;;;;5.60;0.80;;;;;;;18.60;100.00;98602.53;5063480;28;20059;-78
2023/08/03 02:14:21;;;;;;;2.92;0.65;;;;;;;18.88;100.00;98651.34;5071770;28;20049;-78
2023/08/03 02:16:50;;;;;;;4.82;0.60;;;;;;;18.74;100.00;98623.31;5080980;28;20048;-79
2023/08/03 02:19:18;;;;;;;3.80;0.50;;;;;;;18.92;100.00;98623.16;5067541;28;20043;-79
2023/08/03 02:21:47;;;;;;;1.63;0.35;;;;;;;18.97;100.00;98653.00;5069050;28;20044;-77
2023/08/03 02:24:16;;;;;;;3.15;0.50;;;;;;;18.90;100.00;98633.19;5066536;28;20119;-78
2023/08/03 02:26:46;;;;;;;1.90;0.40;;;;;;;18.82;100.00;98652.00;5073357;28;20063;-78
2023/08/03 02:29:17;;;;;;;1.60;0.30;;;;;;;18.19;100.00;98585.53;5086318;28;20176;-78
2023/08/03 02:31:45;;;;;;;3.78;0.30;;;;;;;18.44;100.00;98653.41;5071043;28;20048;-78
2023/08/03 02:34:15;;;;;;;;;;;;;;;18.37;100.00;98657.75;5091358;28;20118;-78
2023/08/03 02:36:44;;;;;;;1.35;0.30;;;;;;;18.28;100.00;98662.22;5057389;28;20426;-77
2023/08/03 02:39:12;;;;;;;2.38;0.38;;;;;;;18.09;100.00;98649.13;5060545;28;20563;-78
2023/08/03 02:41:44;;;;;;;1.98;0.50;;;;;;;17.99;100.00;98640.38;5067806;28;20118;-79
2023/08/03 02:44:21;;;;;;;3.72;0.45;;;;;;;17.95;100.00;98650.56;5071532;28;20430;-79
2023/08/03 02:46:50;;;;;;;3.63;0.55;;;;;;;17.82;100.00;98639.44;5069249;28;20044;-79
2023/08/03 02:49:18;;;;;;;2.40;0.50;;;;;;;17.91;100.00;98667.13;5081896;28;20046;-78
2023/08/03 02:51:51;;;;;;;2.20;0.57;;;;;;;17.83;100.00;98657.19;5059423;28;20049;-78
2023/08/03 02:54:29;;;;;;;3.88;0.80;;;;;;;17.85;100.00;98666.75;5052427;28;20048;-77
2023/08/03 02:56:58;;;;;;;4.07;0.60;;;;;;;17.87;100.00;98651.38;5076215;28;20072;-78
2023/08/03 02:59:27;;;;;;;1.42;0.50;;;;;;;17.77;100.00;98653.34;5059968;28;20082;-77
2023/08/03 03:01:55;;;;;;;1.90;0.50;;;;;;;17.78;100.00;98664.88;5085737;28;20048;-78
2023/08/03 03:04:29;;;;;;;1.92;0.30;;;;;;;17.84;100.00;98682.97;5079625;28;20047;-77
2023/08/03 03:06:57;;;;;;;3.22;0.57;;;;;;;17.78;100.00;98657.69;5070896;28;20047;-77
2023/08/03 03:09:29;;;;;;;2.55;0.35;;;;;;;17.88;100.00;98687.88;5074352;28;20052;-78
2023/08/03 03:12:00;;;;;;;2.60;0.60;;;;;;;17.67;100.00;98652.59;5068437;28;20052;-78
2023/08/03 03:14:45;;;;;;;3.97;0.75;;;;;;;17.78;100.00;98681.78;5056537;28;20036;-79
2023/08/03 03:17:14;;;;;;;3.25;0.38;;;;;;;17.80;100.00;98678.94;5074625;28;20054;-79
2023/08/03 03:19:45;;;;;;;2.15;0.60;;;;;;;17.77;100.00;98682.78;5040319;28;20055;-83
2023/08/03 03:22:14;;;;;;;3.40;0.55;;;;;;;17.71;100.00;98682.56;5067776;28;20044;-77
2023/08/03 03:24:42;;;;;;;1.90;0.60;;;;;;;17.70;100.00;98679.06;5081829;28;20051;-78
2023/08/03 03:27:10;;;;;;;3.05;0.47;;;;;;;17.67;100.00;98671.34;5089035;28;20047;-78
2023/08/03 03:29:48;;;;;;;3.95;0.70;;;;;;;17.65;100.00;98693.91;5072158;28;20059;-79
2023/08/03 03:32:16;;;;;;;3.75;0.80;;;;;;;17.49;100.00;98697.28;5048009;28;20059;-78
2023/08/03 03:34:44;;;;;;;2.97;0.63;;;;;;;17.44;100.00;98702.28;5064741;28;20051;-78
2023/08/03 03:37:15;;;;;;;3.40;0.52;;;;;;;17.56;100.00;98719.75;5093773;28;20072;-78
2023/08/03 03:39:44;;;;;;;2.88;0.70;;;;;;;17.60;100.00;98712.25;5091713;28;20126;-78
2023/08/03 03:42:21;;;;;;;3.45;0.68;;;;;;;17.57;100.00;98705.38;5068198;28;20131;-77
2023/08/03 03:44:57;;;;;;;4.03;0.82;;;;;;;17.55;100.00;98726.09;5067613;28;20049;-76
2023/08/03 03:47:30;;;;;;;4.38;0.90;;;;;;;17.51;100.00;98730.94;5073105;28;20060;-80
2023/08/03 03:50:01;;;;;;;4.15;0.70;;;;;;;17.44;100.00;98726.38;5069703;28;20263;-77
2023/08/03 03:52:31;;;;;;;2.70;0.80;;;;;;;17.48;100.00;98743.78;5066379;28;20044;-77
2023/08/03 03:54:59;;;;;;;5.03;0.68;;;;;;;17.31;100.00;98712.56;5057180;28;20075;-76
2023/08/03 03:57:27;;;;;;;3.00;0.73;;;;;;;17.38;100.00;98721.63;5061100;28;20044;-77
2023/08/03 03:59:58;;;;;;;6.45;1.10;;;;;;;17.37;100.00;98730.66;5051341;28;20469;-79
2023/08/03 04:02:25;;;;;;;4.03;1.05;;;;;;;17.30;100.00;98735.81;5072753;28;20094;-79
2023/08/03 04:04:58;;;;;;;3.13;0.63;;;;;;;17.25;100.00;98726.53;5055632;28;20417;-78
2023/08/03 04:07:26;;;;;;;4.47;0.98;;;;;;;17.40;100.00;98731.19;5086325;28;20040;-78
2023/08/03 04:09:55;;;;;;;3.85;0.73;;;;;;;17.49;100.00;98748.13;5060341;28;20068;-78
2023/08/03 04:12:23;;;;;;;8.98;1.10;;;;;;;17.52;100.00;98746.00;5053920;28;20048;-79
2023/08/03 04:14:53;;;;;;;3.58;1.00;;;;;;;17.46;100.00;98743.94;5081099;28;20071;-78
2023/08/03 04:17:23;;;;;;;4.22;0.70;;;;;;;17.33;100.00;98724.75;5069248;28;20051;-78
2023/08/03 04:19:54;;;;;;;3.72;0.80;;;;;;;17.37;100.00;98738.69;5062443;28;20051;-76
2023/08/03 04:22:23;;;;;;;3.47;0.90;;;;;;;17.51;100.00;98746.13;5066682;28;20050;-78
2023/08/03 04:24:50;;;;;;;4.18;0.80;;;;;;;17.57;100.00;98747.38;5075193;28;20064;-78
2023/08/03 04:27:21;;;;;;;4.68;0.95;;;;;;;17.50;100.00;98753.31;5070274;28;20380;-77
2023/08/03 04:29:50;;;;;;;6.53;1.02;;;;;;;17.42;100.00;98753.28;5069891;28;20135;-78
2023/08/03 04:32:18;;;;;;;2.17;0.60;;;;;;;17.41;100.00;98756.09;5052492;28;20061;-77
2023/08/03 04:34:50;;;;;;;5.25;1.08;;;;;;;17.39;100.00;98742.88;5099555;28;20051;-78
2023/08/03 04:37:18;;;;;;;4.95;0.80;;;;;;;17.40;100.00;98735.69;5102543;28;20043;-80
2023/08/03 04:39:49;;;;;;;4.43;0.80;;;;;;;17.40;100.00;98731.19;5102676;28;20032;-80
2023/08/03 04:42:17;;;;;;;3.55;0.88;;;;;;;17.62;100.00;98766.47;5062966;28;20039;-79
2023/08/03 04:44:47;;;;;;;5.65;1.17;;;;;;;17.51;100.00;98754.16;5071904;28;20052;-81
2023/08/03 04:47:19;;;;;;;6.28;1.02;;;;;;;17.51;100.00;98776.41;5077276;28;20024;-77
2023/08/03 04:49:51;;;;;;;3.25;0.88;;;;;;;17.51;100.00;98768.38;5072206;28;20028;-78
2023/08/03 04:52:21;;;;;;;6.47;1.02;;;;;;;17.60;100.00;98763.13;5083780;28;20035;-76
2023/08/03 04:54:49;;;;;;;3.17;0.73;;;;;;;17.57;100.00;98758.91;5071257;28;20141;-76
2023/08/03 04:57:18;;;;;;;1.73;0.50;;;;;;;17.64;100.00;98764.50;5070937;28;20147;-77
2023/08/03 04:59:47;;;;;;;2.28;0.70;;;;;;;17.71;100.00;98773.59;5070576;28;20044;-79
2023/08/03 05:02:16;;;;;;;3.20;0.70;;;;;;;17.66;100.00;98779.41;5057374;28;20075;-77
2023/08/03 05:04:45;;;;;;;5.65;1.20;;;;;;;17.66;100.00;98778.56;5088401;28;20504;-78
2023/08/03 05:07:15;;;;;;;4.78;0.75;;;;;;;17.71;100.00;98782.47;5041998;28;20032;-78
2023/08/03 05:09:45;;;;;;;6.47;0.90;;;;;;;17.39;100.00;98774.16;5079393;28;20611;-77
2023/08/03 05:12:14;;;;;;;5.03;0.90;;;;;;;17.35;100.00;98772.78;5075455;28;20142;-78
2023/08/03 05:14:42;;;;;;;4.15;0.85;;;;;;;17.30;100.00;98785.78;5073708;28;20111;-78
2023/08/03 05:17:10;;;;;;;5.20;0.88;;;;;;;17.27;100.00;98780.75;5050252;28;20045;-78
2023/08/03 05:19:40;;;;;;;3.53;0.70;;;;;;;17.32;100.00;98781.94;5046872;28;20051;-77
2023/08/03 05:22:09;;;;;;;4.10;0.95;;;;;;;17.41;100.00;98774.84;5065429;28;20040;-76
2023/08/03 05:24:40;;;;;;;4.13;0.60;;;;;;;17.37;100.00;98778.81;5053164;28;20649;-77
2023/08/03 05:27:09;;;;;;;4.35;0.77;;;;;;;17.49;100.00;98786.44;5090945;28;20090;-77
2023/08/03 05:29:37;;;;;;;5.72;0.63;;;;;;;17.58;100.00;98790.03;5080790;28;20044;-77
2023/08/03 05:32:05;;;;;;;3.75;0.85;;;;;;;17.58;100.00;98782.00;5052372;28;20153;-77
2023/08/03 05:34:33;;;;;;;2.85;0.47;;;;;;;17.62;100.00;98779.88;5065732;28;20044;-77
2023/08/03 05:37:03;;;;;;;5.75;0.77;;;;;;;17.62;100.00;98791.41;5066622;28;20047;-77
2023/08/03 05:39:31;;;;;;;3.90;0.50;;;;;;;17.50;100.00;98787.28;5066012;28;20051;-79
2023/08/03 05:42:01;;;;;;;3.85;0.80;;;;;;;17.39;100.00;98787.53;5063913;28;20457;-78
2023/08/03 05:44:30;;;;;;;3.53;0.60;;;;;;;17.11;100.00;98774.25;5085721;28;20066;-75
2023/08/03 05:47:03;;;;;;;;;;;;;;;17.06;100.00;98781.88;5081703;28;20104;-78
2023/08/03 05:49:31;;;;;;;3.35;0.70;;;;;;;17.03;100.00;98775.97;5075007;28;20166;-79
2023/08/03 05:52:00;;;;;;;3.63;0.70;;;;;;;17.08;100.00;98785.25;5070513;28;20047;-77
2023/08/03 05:54:34;;;;;;;2.92;1.00;;;;;;;17.11;100.00;98787.63;5069922;28;20052;-77
2023/08/03 05:57:11;;;;;;;2.15;0.70;;;;;;;17.06;100.00;98787.22;5068755;28;20032;-78
2023/08/03 05:59:40;;;;;;;4.15;0.70;;;;;;;17.19;100.00;98778.81;5065692;28;20576;-77
2023/08/03 06:02:29;;;;;;;4.22;0.75;;;;;;;17.35;100.00;98786.16;5062678;28;20037;-77
2023/08/03 06:05:01;;;;;;;3.63;0.95;;;;;;;17.33;100.00;98775.59;5084368;28;20492;-76
2023/08/03 06:07:33;;;;;;;2.47;0.93;;;;;;;17.25;100.00;98766.66;5069730;28;20049;-77
2023/08/03 06:10:04;;;;;;;2.72;0.85;;;;;;;17.52;100.00;98782.63;5069639;28;20062;-78
2023/08/03 06:12:34;;;;;;;3.70;0.90;;;;;;;17.53;100.00;98754.84;5059104;28;20443;-78
2023/08/03 06:15:03;;;;;;;3.97;0.85;;;;;;;18.06;100.00;98784.22;5052695;28;20040;-79
2023/08/03 06:17:31;;;;;;;3.40;0.82;;;;;;;18.26;100.00;98778.63;5070481;28;20576;-77
2023/08/03 06:19:59;;;;;;;4.57;0.90;;;;;;;18.13;100.00;98804.00;5067054;28;20056;-78
2023/08/03 06:22:27;;;;;;;4.05;0.60;;;;;;;18.18;100.00;98803.53;5058148;28;20756;-78
2023/08/03 06:24:59;;;;;;;4.10;0.90;;;;;;;18.52;100.00;98793.66;5044677;28;20709;-79
2023/08/03 06:27:27;;;;;;;6.07;0.82;;;;;;;18.80;100.00;98801.50;5063886;28;20043;-78
2023/08/03 06:29:56;;;;;;;5.15;1.35;;;;;;;18.98;100.00;98782.59;5067202;28;20143;-78
2023/08/03 06:32:29;;;;;;;4.72;0.82;;;;;;;18.86;100.00;98807.06;5045798;28;20073;-78
2023/08/03 06:34:58;;;;;;;5.05;1.08;;;;;;;18.76;100.00;98806.31;5065765;28;20048;-77
2023/08/03 06:37:27;;;;;;;4.68;0.80;;;;;;;19.11;100.00;98816.00;5069835;28;20577;-78
2023/08/03 06:39:55;;;;;;;7.67;1.00;;;;;;;18.86;100.00;98812.41;5052712;28;20148;-78
2023/08/03 06:42:23;;;;;;;6.57;1.08;;;;;;;18.76;100.00;98802.81;5067171;28;20056;-78
2023/08/03 06:44:51;;;;;;;5.53;1.70;;;;;;;19.07;100.00;98811.09;5072207;28;20049;-78
2023/08/03 06:47:23;;;;;;;5.50;1.20;;;;;;;19.42;100.00;98794.72;5053710;28;20076;-77
2023/08/03 06:49:51;;;;;;;5.88;1.25;;;;;;;19.40;100.00;98806.63;5067486;28;20139;-77
2023/08/03 06:52:18;;;;;;;6.32;1.33;;;;;;;19.36;100.00;98806.13;5063551;28;20062;-77
2023/08/03 06:54:46;;;;;;;6.00;1.17;;;;;;;19.02;100.00;98795.53;5070051;28;20055;-77
2023/08/03 06:57:15;;;;;;;4.88;1.23;;;;;;;18.95;100.00;98817.78;5066435;28;20068;-77
2023/08/03 06:59:43;;;;;;;3.35;0.98;;;;;;;18.85;100.00;98818.78;5069323;28;20136;-78
2023/08/03 07:02:11;;;;;;;7.60;1.20;;;;;;;18.58;100.00;98825.19;5068618;28;20049;-77
2023/08/03 07:04:42;;;;;;;8.40;1.02;;;;;;;18.30;100.00;98828.19;5050492;28;20040;-78
2023/08/03 07:07:14;;;;;;;4.13;1.03;;;;;;;18.32;100.00;98832.41;5065610;28;20188;-79
2023/08/03 07:09:43;;;;;;;5.88;0.98;;;;;;;18.21;100.00;98844.25;5060071;28;20049;-78
2023/08/03 07:12:11;;;;;;;5.28;0.98;;;;;;;18.10;100.00;98838.31;5049069;28;20048;-77
2023/08/03 07:14:39;;;;;;;5.00;0.98;;;;;;;18.06;100.00;98844.97;5066871;28;20072;-76
2023/08/03 07:17:07;;;;;;;2.50;0.85;;;;;;;18.16;100.00;98865.31;5072773;28;20048;-78
2023/08/03 07:19:35;;;;;;;3.42;1.00;;;;;;;18.21;100.00;98863.00;5080165;28;20044;-78
2023/08/03 07:22:08;;;;;;;4.68;1.00;;;;;;;18.30;100.00;98879.97;5075875;28;20040;-77
2023/08/03 07:24:37;;;;;;;6.20;0.95;;;;;;;18.36;100.00;98876.66;5086672;28;20104;-78
2023/08/03 07:27:09;;;;;;;4.43;0.82;;;;;;;18.38;100.00;98890.75;5069041;28;20053;-77
2023/08/03 07:29:39;;;;;;;6.28;0.98;;;;;;;18.23;100.00;98895.84;5072821;28;20123;-77
2023/08/03 07:32:09;;;;;;;7.40;1.17;;;;;;;18.25;100.00;98913.59;5053705;28;20464;-78
2023/08/03 07:34:39;;;;;;;3.08;0.90;;;;;;;18.33;100.00;98901.09;5049201;28;20040;-77
2023/08/03 07:37:08;;;;;;;5.85;0.85;;;;;;;18.51;100.00;98898.34;5071993;28;20053;-77
2023/08/03 07:39:36;;;;;;;4.22;1.13;;;;;;;18.57;100.00;98908.47;5072868;28;20046;-78
2023/08/03 07:42:04;;;;;;;5.85;1.10;;;;;;;18.45;100.00;98905.19;5049139;28;20504;-78
2023/08/03 07:44:33;;;;;;;2.93;0.73;;;;;;;18.23;100.00;98928.00;5049353;28;20134;-77
2023/08/03 07:47:06;;;;;;;3.55;0.70;;;;;;;18.06;100.00;98925.34;5050362;28;20143;-78
2023/08/03 07:49:34;;;;;;;5.13;0.95;;;;;;;18.04;100.00;98943.41;5067011;28;20045;-77
2023/08/03 07:52:02;;;;;;;4.55;0.90;;;;;;;17.96;100.00;98956.69;5067140;28;20136;-80
2023/08/03 07:54:32;;;;;;;5.00;1.10;;;;;;;17.49;100.00;98887.28;5063323;28;20626;-78
2023/08/03 07:57:00;;;;;;;3.67;0.90;;;;;;;17.85;100.00;98944.41;5082679;28;20049;-76
2023/08/03 07:59:28;;;;;;;4.70;1.10;;;;;;;17.98;100.00;98957.41;5068746;28;20044;-77
2023/08/03 08:01:56;;;;;;;4.00;0.88;;;;;;;18.18;100.00;98957.09;5069161;28;20056;-77
2023/08/03 08:04:24;;;;;;;5.72;0.82;;;;;;;18.19;100.00;98963.28;5064425;28;20428;-77
2023/08/03 08:06:52;;;;;;;5.97;1.10;;;;;;;18.19;100.00;98965.97;5069646;28;20040;-78
2023/08/03 08:09:20;;;;;;;3.88;0.93;;;;;;;18.23;100.00;98972.69;5049671;28;20508;-78
2023/08/03 08:11:50;;;;;;;3.88;0.88;;;;;;;18.23;100.00;98949.44;5068795;28;20048;-78
2023/08/03 08:14:19;;;;;;;3.97;1.10;;;;;;;18.42;100.00;98969.81;5060167;28;20045;-76
2023/08/03 08:16:47;;;;;;;3.35;1.10;;;;;;;18.50;100.00;98971.72;5070067;28;20122;-77
2023/08/03 08:19:25;;;;;;;3.50;0.70;;;;;;;18.53;100.00;98972.25;5068545;28;20512;-77
2023/08/03 08:21:53;;;;;;;4.13;0.80;;;;;;;18.60;100.00;98975.16;5070350;28;20058;-77
2023/08/03 08:24:41;;;;;;;4.53;0.90;;;;;;;18.63;100.00;98982.06;5079201;28;20107;-78
2023/08/03 08:27:12;;;;;;;3.75;0.90;;;;;;;18.51;100.00;98973.41;5072600;28;20533;-77
2023/08/03 08:29:41;;;;;;;3.78;0.90;;;;;;;18.50;100.00;98980.59;5065630;28;20080;-77
2023/08/03 08:32:11;;;;;;;5.38;1.00;;;;;;;18.54;100.00;98978.47;5065123;28;20048;-78
2023/08/03 08:34:38;;;;;;;4.25;1.08;;;;;;;18.68;100.00;98979.75;5067299;28;20071;-77
2023/08/03 08:37:07;;;;;;;3.00;0.90;;;;;;;18.76;100.00;98979.78;5052757;28;20078;-77
2023/08/03 08:39:35;;;;;;;4.18;1.10;;;;;;;18.71;100.00;98977.59;5079351;28;20132;-77
2023/08/03 08:42:12;;;;;;;6.15;1.02;;;;;;;18.71;100.00;98996.38;5066905;28;20117;-78
2023/08/03 08:44:41;;;;;;;4.28;0.93;;;;;;;18.52;100.00;98986.66;5061777;28;20056;-77
2023/08/03 08:47:09;;;;;;;4.75;1.27;;;;;;;18.63;100.00;98995.47;5044922;28;20048;-77
2023/08/03 08:49:39;;;;;;;4.15;0.90;;;;;;;18.45;100.00;98964.16;5069216;28;20093;-78
2023/08/03 08:52:14;;;;;;;8.18;1.35;;;;;;;18.55;100.00;98970.28;5074383;28;20059;-77
2023/08/03 08:54:42;;;;;;;8.10;1.35;;;;;;;18.76;100.00;99009.28;5047388;28;20052;-76
2023/08/03 08:57:15;;;;;;;4.82;1.10;;;;;;;18.52;100.00;98989.34;5074444;28;20048;-76
2023/08/03 09:00:02;;;;;;;4.18;1.13;;;;;;;18.69;100.00;99008.25;5056357;28;20505;-77
2023/08/03 09:02:30;;;;;;;4.80;1.00;;;;;;;18.73;100.00;98998.91;5067430;28;20118;-76
2023/08/03 09:05:08;;;;;;;4.15;1.10;;;;;;;18.78;100.00;99018.03;5060759;28;20098;-77
2023/08/03 09:07:36;;;;;;;4.32;1.02;;;;;;;18.81;100.00;99013.19;5067107;28;20064;-78
2023/08/03 09:10:06;;;;;;;4.43;0.95;;;;;;;18.85;100.00;99013.72;5052952;28;20109;-77
2023/08/03 09:12:37;;;;;;;4.32;1.08;;;;;;;18.87;100.00;99012.56;5074163;28;20046;-79
2023/08/03 09:15:06;;;;;;;6.07;1.10;;;;;;;18.90;100.00;99032.84;5076191;28;20123;-78
2023/08/03 09:17:34;;;;;;;6.97;1.30;;;;;;;18.74;100.00;99019.34;5072780;28;20139;-78
2023/08/03 09:20:03;;;;;;;3.63;0.80;;;;;;;18.70;100.00;99037.59;5074089;28;20045;-79
2023/08/03 09:22:43;;;;;;;2.97;0.93;;;;;;;18.61;100.00;99032.31;5082938;28;20461;-78
2023/08/03 09:25:14;;;;;;;5.78;1.05;;;;;;;18.49;100.00;99026.34;5075695;28;20048;-78
2023/08/03 09:27:59;;;;;;;3.55;0.77;;;;;;;18.55;100.00;99023.88;5081900;28;20053;-78
2023/08/03 09:30:52;;;;;;;5.00;0.87;;;;;;;18.67;100.00;99037.91;5066592;28;20581;-79
2023/08/03 09:33:23;;;;;;;3.15;0.88;;;;;;;18.64;100.00;99038.22;5048006;28;20110;-77
2023/08/03 09:36:13;;;;;;;4.47;1.00;;;;;;;18.70;100.00;99042.13;5054744;28;20094;-78
2023/08/03 09:38:44;;;;;;;5.00;1.23;;;;;;;18.80;100.00;99050.91;5067291;28;20048;-77
2023/08/03 09:41:14;;;;;;;3.20;0.65;;;;;;;18.84;100.00;99052.28;5068700;28;20052;-78
2023/08/03 09:43:49;;;;;;;2.65;0.73;;;;;;;18.86;100.00;99059.16;5057945;28;20052;-78
2023/08/03 09:46:17;;;;;;;5.72;0.93;;;;;;;18.68;100.00;99028.88;5060371;28;20133;-77
2023/08/03 09:48:45;;;;;;;5.35;1.35;;;;;;;18.78;100.00;99072.50;5065082;28;20056;-77
2023/08/03 09:51:35;;;;;;;2.95;0.70;;;;;;;18.85;100.00;99060.16;5052448;28;20064;-77
2023/08/03 09:54:14;;;;;;;5.00;1.05;;;;;;;18.82;100.00;99051.59;5060074;28;20052;-78
2023/08/03 09:56:54;;;;;;;5.25;1.30;;;;;;;19.09;100.00;99070.19;5054393;28;20048;-78
2023/08/03 09:59:33;;;;;;;4.00;1.10;;;;;;;19.07;100.00;99061.47;5050574;28;20124;-77
2023/08/03 10:02:03;;;;;;;4.13;0.98;;;;;;;19.27;100.00;99076.34;5067403;28;20041;-77
2023/08/03 10:04:34;;;;;;;3.67;1.25;;;;;;;19.20;100.00;99058.38;5051249;28;20139;-78
2023/08/03 10:07:09;;;;;;;3.97;1.25;;;;;;;19.19;100.00;99060.22;5065389;28;20086;-77
2023/08/03 10:09:40;;;;;;;4.28;1.05;;;;;;;19.39;100.00;99089.50;5067798;28;20063;-77
2023/08/03 10:12:13;;;;;;;5.10;1.58;;;;;;;19.18;100.00;99063.06;5065070;28;20048;-78
2023/08/03 10:14:44;;;;;;;4.40;1.30;;;;;;;19.50;100.00;99094.63;5057779;28;20041;-77
2023/08/03 10:17:14;;;;;;;4.10;1.05;;;;;;;19.45;100.00;99086.19;5063200;28;20045;-78
2023/08/03 10:19:42;;;;;;;4.87;1.17;;;;;;;19.44;100.00;99089.88;5068821;28;20124;-77
2023/08/03 10:22:10;;;;;;;5.55;1.08;;;;;;;19.20;100.00;99087.91;5067622;28;20080;-78
2023/08/03 10:24:42;;;;;;;4.00;0.93;;;;;;;19.23;100.00;99103.66;5061532;28;20114;-77
2023/08/03 10:27:18;;;;;;;;;;;;;;;19.23;100.00;99103.66;5068691;28;20574;-77
2023/08/03 10:29:55;;;;;;;3.13;0.70;;;;;;;19.09;100.00;99101.56;5053485;28;19921;-78
2023/08/03 10:32:27;;;;;;;2.00;0.77;;;;;;;18.98;100.00;99100.00;5059370;28;20556;-78
2023/08/03 10:34:58;;;;;;;2.35;0.90;;;;;;;19.08;100.00;99106.09;5059200;28;20500;-78
2023/08/03 10:37:26;;;;;;;4.30;1.17;;;;;;;19.17;100.00;99101.63;5069038;28;20044;-76
2023/08/03 10:39:58;;;;;;;3.20;1.10;;;;;;;19.13;100.00;99102.94;5084124;28;20407;-78
2023/08/03 10:42:32;;;;;;;3.47;0.85;;;;;;;19.02;100.00;99108.56;5069212;28;20095;-77
2023/08/03 10:45:28;;;;;;;2.13;0.55;;;;;;;18.67;100.00;99128.22;5075695;28;20048;-78
2023/08/03 10:48:22;;;;;;;4.88;1.88;;;;;;;18.79;100.00;99143.06;5066943;28;20079;-79
2023/08/03 10:51:00;;;;;;;2.63;0.93;;;;;;;18.62;100.00;99114.44;5068374;28;20064;-77
2023/08/03 10:53:28;;;;;;;1.45;0.63;;;;;;;18.83;100.00;99123.00;5066313;28;20098;-78
2023/08/03 10:56:14;;;;;;;4.00;0.82;;;;;;;18.92;100.00;99133.63;5046128;28;20052;-78
2023/08/03 10:58:48;;;;;;;2.03;1.10;;;;;;;18.98;100.00;99131.34;5061761;28;20049;-78
2023/08/03 11:01:24;;;;;;;4.32;1.05;;;;;;;19.04;100.00;99141.47;5065015;28;20080;-78
2023/08/03 11:03:53;;;;;;;8.27;1.40;;;;;;;18.98;100.00;99142.06;5049887;28;20049;-78
2023/08/03 11:06:23;;;;;;;5.93;1.08;;;;;;;18.97;100.00;99140.38;5029688;28;20078;-78
2023/08/03 11:08:53;;;;;;;3.35;0.98;;;;;;;19.03;100.00;99135.25;5066670;28;20134;-78
2023/08/03 11:11:32;;;;;;;2.30;1.13;;;;;;;19.08;100.00;99143.66;5044408;28;20091;-78
2023/08/03 11:14:01;;;;;;;4.43;0.90;;;;;;;19.03;100.00;99145.97;5058659;28;20084;-79
2023/08/03 11:16:32;;;;;;;3.17;1.17;;;;;;;18.92;100.00;99148.88;5057851;28;20051;-78
2023/08/03 11:19:02;;;;;;;3.05;1.02;;;;;;;18.79;100.00;99138.56;5056010;28;20047;-79
2023/08/03 11:21:31;;;;;;;3.95;1.70;;;;;;;18.81;100.00;99162.53;5053665;28;20074;-77
2023/08/03 11:24:01;;;;;;;3.28;1.55;;;;;;;18.81;100.00;99160.72;5062507;28;20048;-78
2023/08/03 11:26:29;;;;;;;;;;;;;;;18.79;100.00;99159.16;5059808;28;20163;-78
2023/08/03 11:28:57;;;;;;;3.40;1.80;;;;;;;18.72;100.00;99164.31;5070608;28;19927;-77
2023/08/03 11:31:25;;;;;;;2.75;1.00;;;;;;;18.71;100.00;99161.78;5071361;28;20512;-77
2023/08/03 11:33:56;;;;;;;2.65;0.80;;;;;;;18.73;100.00;99165.16;5052238;28;20048;-78
2023/08/03 11:36:24;;;;;;;2.95;1.73;;;;;;;18.56;100.00;99135.50;5045554;28;20503;-77
2023/08/03 11:38:54;;;;;;;;;;;;;;;18.58;100.00;99156.75;5054697;28;20095;-77
2023/08/03 11:41:25;;;;;;;;;;;;;;;18.49;100.00;99150.47;5063286;28;19920;-77
2023/08/03 11:43:57;;;;;;;3.20;1.23;;;;;;;18.50;100.00;99149.50;5063590;28;20308;-77